Time;durP1;ratioP1;P1;durP2;ratioP2;P2;SDS_P1;SDS_P2;PMS_P1;PMS_P2;Temp;Humidity;BMP_temperature;BMP_pressure;BME280_temperature;BME280_humidity;BME280_pressure;Samples;Min_cycle;Max_cycle;Signal;HPM_P1;HPM_P2
2023/03/28 00:01:43;;;;;;;8.30;3.80;;;4.90;99.90;;;;;;5026106;28;20592;-32
2023/03/28 00:04:11;;;;;;;7.80;3.77;;;4.80;99.90;;;;;;5026497;28;20255;-36
2023/03/28 00:06:40;;;;;;;9.50;3.80;;;4.80;99.90;;;;;;5027069;28;20315;-32
2023/03/28 00:09:08;;;;;;;8.93;4.40;;;4.80;99.90;;;;;;5027104;28;20205;-33
2023/03/28 00:11:39;;;;;;;10.70;3.77;;;4.80;99.90;;;;;;5026038;28;20323;-33
2023/03/28 00:14:12;;;;;;;13.87;4.50;;;4.80;99.90;;;;;;5026986;28;20722;-32
2023/03/28 00:16:45;;;;;;;9.87;4.10;;;4.80;99.90;;;;;;5025626;28;20202;-33
2023/03/28 00:19:15;;;;;;;9.30;3.80;;;4.70;99.90;;;;;;5025507;28;20217;-32
2023/03/28 00:21:47;;;;;;;10.97;4.27;;;4.70;99.90;;;;;;5026927;28;20251;-32
2023/03/28 00:24:20;;;;;;;12.53;4.90;;;4.70;99.90;;;;;;5025283;28;20254;-33
2023/03/28 00:26:53;;;;;;;8.37;4.00;;;4.70;99.90;;;;;;5025399;28;20639;-32
2023/03/28 00:29:28;;;;;;;8.10;3.93;;;4.70;99.90;;;;;;5026471;28;20232;-31
2023/03/28 00:31:59;;;;;;;11.00;4.27;;;4.70;99.90;;;;;;5025411;28;20223;-32
2023/03/28 00:34:26;;;;;;;8.17;3.83;;;4.60;99.90;;;;;;5025747;28;20620;-32
2023/03/28 00:36:55;;;;;;;11.03;4.10;;;4.60;99.90;;;;;;5026945;28;20763;-32
2023/03/28 00:39:26;;;;;;;12.23;3.77;;;4.60;99.90;;;;;;5026861;28;20196;-33
2023/03/28 00:42:01;;;;;;;7.97;4.00;;;4.50;99.90;;;;;;5009635;28;20213;-32
2023/03/28 00:44:48;;;;;;;8.97;4.17;;;4.50;99.90;;;;;;5026456;28;20773;-33
2023/03/28 00:47:46;;;;;;;9.73;4.00;;;4.50;99.90;;;;;;5027012;28;20554;-32
2023/03/28 00:50:22;;;;;;;9.77;4.07;;;4.40;99.90;;;;;;5027266;28;20254;-32
2023/03/28 00:53:08;;;;;;;8.60;4.27;;;4.40;99.90;;;;;;5024973;28;20278;-33
2023/03/28 00:55:46;;;;;;;10.47;4.37;;;4.30;99.90;;;;;;5026409;28;20306;-32
2023/03/28 00:58:24;;;;;;;9.33;4.30;;;4.30;99.90;;;;;;5026814;28;20547;-32
2023/03/28 01:00:53;;;;;;;11.03;4.57;;;4.20;99.90;;;;;;5024991;28;20205;-32
2023/03/28 01:03:26;;;;;;;7.27;3.87;;;4.20;99.90;;;;;;5030659;28;20726;-32
2023/03/28 01:05:55;;;;;;;6.63;3.60;;;4.10;99.90;;;;;;5032900;28;20234;-33
2023/03/28 01:08:27;;;;;;;9.03;4.33;;;4.10;99.90;;;;;;5031927;28;20216;-32
2023/03/28 01:10:57;;;;;;;7.50;3.80;;;4.10;99.90;;;;;;5044652;28;20776;-33
2023/03/28 01:13:40;;;;;;;11.17;4.90;;;4.10;99.90;;;;;;5044842;28;20216;-32
2023/03/28 01:16:13;;;;;;;9.87;4.30;;;4.10;99.90;;;;;;5033194;28;20212;-32
2023/03/28 01:18:50;;;;;;;10.37;3.97;;;4.10;99.90;;;;;;5031033;28;20204;-33
2023/03/28 01:21:47;;;;;;;9.83;4.50;;;4.10;99.90;;;;;;5045633;28;20234;-32
2023/03/28 01:24:55;;;;;;;7.67;3.40;;;4.10;99.90;;;;;;5036711;28;20208;-32
2023/03/28 01:27:25;;;;;;;8.67;4.33;;;4.10;99.90;;;;;;5041385;28;20255;-33
2023/03/28 01:30:13;;;;;;;7.17;4.07;;;4.00;99.90;;;;;;5044283;28;20213;-32
2023/03/28 01:33:02;;;;;;;8.93;4.63;;;4.00;99.90;;;;;;5044176;28;20289;-33
2023/03/28 01:35:54;;;;;;;8.00;3.70;;;4.00;99.90;;;;;;5046555;28;20204;-33
2023/03/28 01:38:45;;;;;;;8.93;4.33;;;4.00;99.90;;;;;;5044651;28;20699;-32
2023/03/28 01:41:38;;;;;;;9.13;4.20;;;3.90;99.90;;;;;;5044757;28;20230;-32
2023/03/28 01:44:16;;;;;;;8.37;4.00;;;3.90;99.90;;;;;;5034665;28;20548;-33
2023/03/28 01:46:49;;;;;;;9.30;4.53;;;3.90;99.90;;;;;;5045861;28;20200;-33
2023/03/28 01:49:29;;;;;;;10.83;4.40;;;3.80;99.90;;;;;;5044357;28;20773;-32
2023/03/28 01:52:21;;;;;;;10.63;4.57;;;3.90;99.90;;;;;;5044394;28;20753;-33
2023/03/28 01:55:04;;;;;;;9.00;5.17;;;3.80;99.90;;;;;;5045705;28;20239;-33
2023/03/28 01:57:33;;;;;;;9.70;4.63;;;3.80;99.90;;;;;;5046038;28;20274;-32
2023/03/28 02:00:12;;;;;;;8.40;4.60;;;3.80;99.90;;;;;;5046167;28;20750;-32
2023/03/28 02:02:51;;;;;;;7.40;4.30;;;3.80;99.90;;;;;;5046193;28;20236;-34
2023/03/28 02:05:23;;;;;;;8.57;4.47;;;3.80;99.90;;;;;;5044494;28;20208;-32
2023/03/28 02:07:53;;;;;;;10.53;4.87;;;3.70;99.90;;;;;;5045899;28;20612;-32
2023/03/28 02:10:24;;;;;;;7.80;4.03;;;3.70;99.90;;;;;;5046071;28;20291;-32
2023/03/28 02:13:01;;;;;;;8.03;4.30;;;3.70;99.90;;;;;;5044002;28;20219;-32
2023/03/28 02:15:30;;;;;;;13.07;4.60;;;3.70;99.90;;;;;;5046230;28;20314;-32
2023/03/28 02:18:02;;;;;;;9.73;4.43;;;3.70;99.90;;;;;;5045906;28;20683;-32
2023/03/28 02:20:35;;;;;;;9.40;4.70;;;3.70;99.90;;;;;;5045834;28;20192;-32
2023/03/28 02:23:21;;;;;;;10.20;4.30;;;3.60;99.90;;;;;;5044285;28;20205;-32
2023/03/28 02:25:53;;;;;;;7.70;4.23;;;3.60;99.90;;;;;;5045625;28;20222;-32
2023/03/28 02:28:26;;;;;;;8.20;4.23;;;3.60;99.90;;;;;;5044162;28;20746;-32
2023/03/28 02:30:56;;;;;;;8.77;4.20;;;3.60;99.90;;;;;;5043973;28;20319;-32
2023/03/28 02:33:38;;;;;;;11.97;5.43;;;3.60;99.90;;;;;;5047392;28;20224;-32
2023/03/28 02:36:13;;;;;;;9.73;4.57;;;3.60;99.90;;;;;;5047545;28;20287;-32
2023/03/28 02:38:50;;;;;;;8.17;4.63;;;3.60;99.90;;;;;;5049073;28;20212;-31
2023/03/28 02:41:23;;;;;;;7.87;4.53;;;3.60;99.90;;;;;;5048738;28;20294;-32
2023/03/28 02:44:14;;;;;;;8.67;4.40;;;3.50;99.90;;;;;;5047421;28;20230;-33
2023/03/28 02:47:01;;;;;;;9.40;4.67;;;3.50;99.90;;;;;;5048877;28;20223;-32
2023/03/28 02:49:45;;;;;;;11.70;4.77;;;3.50;99.90;;;;;;5049214;28;20265;-32
2023/03/28 02:52:39;;;;;;;10.70;4.53;;;3.50;99.90;;;;;;5049110;28;20224;-32
2023/03/28 02:55:40;;;;;;;9.03;4.40;;;3.40;99.90;;;;;;5048562;28;20232;-32
2023/03/28 02:58:36;;;;;;;11.43;5.30;;;3.50;99.90;;;;;;5048265;28;20200;-32
2023/03/28 03:01:05;;;;;;;10.33;4.60;;;3.40;99.90;;;;;;5048814;28;20657;-32
2023/03/28 03:03:36;;;;;;;11.40;4.70;;;3.40;99.90;;;;;;5030990;28;20214;-33
2023/03/28 03:06:07;;;;;;;9.07;4.60;;;3.40;99.90;;;;;;5047237;28;20258;-33
2023/03/28 03:08:34;;;;;;;10.10;5.10;;;3.40;99.90;;;;;;5047262;28;20212;-32
2023/03/28 03:11:06;;;;;;;11.03;5.47;;;3.40;99.90;;;;;;5047067;28;20304;-34
2023/03/28 03:13:33;;;;;;;8.47;4.80;;;3.40;99.90;;;;;;5048465;28;20335;-33
2023/03/28 03:16:00;;;;;;;8.50;5.33;;;3.40;99.90;;;;;;5046897;28;20311;-35
2023/03/28 03:18:28;;;;;;;11.63;4.90;;;3.40;99.90;;;;;;5046975;28;20212;-34
2023/03/28 03:20:55;;;;;;;9.73;4.33;;;3.30;99.90;;;;;;5046825;28;20291;-33
2023/03/28 03:23:23;;;;;;;9.67;5.10;;;3.30;99.90;;;;;;5048353;28;20227;-35
2023/03/28 03:25:52;;;;;;;9.57;5.23;;;3.30;99.90;;;;;;5048276;28;20766;-32
2023/03/28 03:28:22;;;;;;;8.50;4.63;;;3.30;99.90;;;;;;5046538;28;20838;-32
2023/03/28 03:30:51;;;;;;;14.23;5.70;;;3.30;99.90;;;;;;5046853;28;20243;-33
2023/03/28 03:33:24;;;;;;;10.00;5.03;;;3.20;99.90;;;;;;5048076;28;20220;-33
2023/03/28 03:35:52;;;;;;;8.87;5.33;;;3.20;99.90;;;;;;5047949;28;20288;-32
2023/03/28 03:38:19;;;;;;;9.47;4.93;;;3.20;99.90;;;;;;5047814;28;20231;-32
2023/03/28 03:40:49;;;;;;;11.53;5.20;;;3.20;99.90;;;;;;5048083;28;20350;-31
2023/03/28 03:43:18;;;;;;;10.47;5.03;;;3.20;99.90;;;;;;5046077;28;20232;-33
2023/03/28 03:45:48;;;;;;;10.50;4.77;;;3.20;99.90;;;;;;5047940;28;20207;-31
2023/03/28 03:48:15;;;;;;;10.27;5.40;;;3.10;99.90;;;;;;5046155;28;20200;-33
2023/03/28 03:50:45;;;;;;;10.93;4.70;;;3.10;99.90;;;;;;5047548;28;20235;-33
2023/03/28 03:53:12;;;;;;;8.57;4.90;;;3.10;99.90;;;;;;5046190;28;20224;-32
2023/03/28 03:55:42;;;;;;;12.80;5.00;;;3.10;99.90;;;;;;5046783;28;20291;-33
2023/03/28 03:58:09;;;;;;;6.90;4.37;;;3.10;99.90;;;;;;5047136;28;20308;-31
2023/03/28 04:00:37;;;;;;;9.33;4.73;;;3.10;99.90;;;;;;5047353;28;20242;-33
2023/03/28 04:03:05;;;;;;;13.20;5.53;;;3.10;99.90;;;;;;5047717;28;20204;-32
2023/03/28 04:05:32;;;;;;;10.57;4.97;;;3.00;99.90;;;;;;5047584;28;20687;-32
2023/03/28 04:08:00;;;;;;;10.90;5.00;;;3.00;99.90;;;;;;5047572;28;20767;-33
2023/03/28 04:10:29;;;;;;;11.00;4.80;;;3.00;99.90;;;;;;5046306;28;20217;-32
2023/03/28 04:12:59;;;;;;;9.10;4.80;;;3.00;99.90;;;;;;5047461;28;20220;-33
2023/03/28 04:15:28;;;;;;;9.43;5.00;;;3.00;99.90;;;;;;5047137;28;20281;-33
2023/03/28 04:17:55;;;;;;;7.37;4.50;;;3.00;99.90;;;;;;5046050;28;20204;-32
2023/03/28 04:20:24;;;;;;;8.03;4.57;;;3.00;99.90;;;;;;5045500;28;20691;-33
2023/03/28 04:22:53;;;;;;;10.50;4.63;;;3.00;99.90;;;;;;5047088;28;20623;-32
2023/03/28 04:25:23;;;;;;;10.97;5.13;;;3.00;99.90;;;;;;5046771;28;20205;-31
2023/03/28 04:27:53;;;;;;;10.63;4.90;;;3.00;99.90;;;;;;5046652;28;20208;-31
2023/03/28 04:30:20;;;;;;;8.77;5.10;;;3.00;99.90;;;;;;5046854;28;20204;-32
2023/03/28 04:32:53;;;;;;;8.23;4.73;;;2.90;99.90;;;;;;5045316;28;20231;-31
2023/03/28 04:35:22;;;;;;;9.53;4.93;;;2.90;99.90;;;;;;5046799;28;20215;-33
2023/03/28 04:37:56;;;;;;;8.67;5.50;;;2.90;99.90;;;;;;5046830;28;20224;-32
2023/03/28 04:40:30;;;;;;;12.27;5.70;;;2.90;99.90;;;;;;5046454;28;20220;-33
2023/03/28 04:43:02;;;;;;;10.03;4.80;;;2.90;99.90;;;;;;5046419;28;20209;-33
2023/03/28 04:45:31;;;;;;;7.80;4.50;;;2.90;99.90;;;;;;5046627;28;20584;-35
2023/03/28 04:48:00;;;;;;;9.93;5.17;;;2.80;99.90;;;;;;5044662;28;20307;-35
2023/03/28 04:50:32;;;;;;;10.47;5.10;;;2.80;99.90;;;;;;5044971;28;20683;-34
2023/03/28 04:53:02;;;;;;;11.50;4.90;;;2.80;99.90;;;;;;5028860;28;20254;-32
2023/03/28 04:55:31;;;;;;;9.20;4.90;;;2.80;99.90;;;;;;5043771;28;20267;-33
2023/03/28 04:58:01;;;;;;;7.90;4.97;;;2.80;99.90;;;;;;5028349;28;20620;-33
2023/03/28 05:00:30;;;;;;;10.47;5.00;;;2.80;99.90;;;;;;5045311;28;20208;-32
2023/03/28 05:03:03;;;;;;;8.43;4.70;;;2.80;99.90;;;;;;5045363;28;20223;-32
2023/03/28 05:05:33;;;;;;;8.30;4.63;;;2.80;99.90;;;;;;5044796;28;20586;-31
2023/03/28 05:08:05;;;;;;;7.47;4.50;;;2.70;99.90;;;;;;5046302;28;20659;-31
2023/03/28 05:10:32;;;;;;;12.33;5.03;;;2.80;99.90;;;;;;5027980;28;20216;-32
2023/03/28 05:13:00;;;;;;;9.17;4.30;;;2.80;99.90;;;;;;5045673;28;20227;-32
2023/03/28 05:15:28;;;;;;;11.67;5.43;;;2.70;99.90;;;;;;5045896;28;20639;-32
2023/03/28 05:17:55;;;;;;;9.27;4.87;;;2.80;99.90;;;;;;5045478;28;20200;-33
2023/03/28 05:20:22;;;;;;;8.33;4.90;;;2.70;99.90;;;;;;5045721;28;20215;-35
2023/03/28 05:22:50;;;;;;;8.53;4.30;;;2.80;99.90;;;;;;5043886;28;20675;-35
2023/03/28 05:25:17;;;;;;;12.17;4.53;;;2.80;99.90;;;;;;5044020;28;20218;-35
2023/03/28 05:27:45;;;;;;;9.20;4.53;;;2.80;99.90;;;;;;5046157;28;20204;-35
2023/03/28 05:30:15;;;;;;;11.17;4.97;;;2.80;99.90;;;;;;5046334;28;20781;-32
2023/03/28 05:32:42;;;;;;;11.93;5.13;;;2.80;99.90;;;;;;5044569;28;20228;-34
2023/03/28 05:35:12;;;;;;;11.53;4.97;;;2.80;99.90;;;;;;5046306;28;20215;-32
2023/03/28 05:37:41;;;;;;;9.87;5.03;;;2.80;99.90;;;;;;5046222;28;20216;-32
2023/03/28 05:40:13;;;;;;;8.73;4.87;;;2.80;99.90;;;;;;5046352;28;20704;-33
2023/03/28 05:42:40;;;;;;;11.60;5.40;;;2.80;99.90;;;;;;5044533;28;20199;-32
2023/03/28 05:45:11;;;;;;;11.50;5.07;;;2.80;99.90;;;;;;5045473;28;20204;-33
2023/03/28 05:47:39;;;;;;;44.97;8.83;;;2.90;99.90;;;;;;5046188;28;20244;-33
2023/03/28 05:50:11;;;;;;;21.23;6.90;;;2.90;99.90;;;;;;5045823;28;20667;-32
2023/03/28 05:52:41;;;;;;;16.03;5.87;;;2.90;99.90;;;;;;5045870;28;20335;-33
2023/03/28 05:55:08;;;;;;;14.30;5.23;;;2.90;99.90;;;;;;5044610;28;20334;-32
2023/03/28 05:57:38;;;;;;;11.83;5.20;;;2.90;99.90;;;;;;5046178;28;20637;-33
2023/03/28 06:00:12;;;;;;;10.47;5.07;;;2.90;99.90;;;;;;5046040;28;20207;-35
2023/03/28 06:02:43;;;;;;;13.00;6.07;;;2.90;99.90;;;;;;5044622;28;20211;-34
2023/03/28 06:05:16;;;;;;;9.17;5.20;;;2.90;99.90;;;;;;5044340;28;20206;-32
2023/03/28 06:07:44;;;;;;;13.73;5.50;;;3.00;99.90;;;;;;5046303;28;20261;-32
2023/03/28 06:10:13;;;;;;;13.53;5.50;;;3.00;99.90;;;;;;5049376;28;20196;-32
2023/03/28 06:12:40;;;;;;;10.77;5.43;;;3.00;99.90;;;;;;5047800;28;20220;-34
2023/03/28 06:15:11;;;;;;;12.60;6.17;;;3.10;99.90;;;;;;5047897;28;20192;-35
2023/03/28 06:17:38;;;;;;;11.17;5.27;;;3.10;99.90;;;;;;5047671;28;20702;-35
2023/03/28 06:20:08;;;;;;;26.13;5.87;;;3.20;99.90;;;;;;5047693;28;20201;-32
2023/03/28 06:22:39;;;;;;;14.87;6.13;;;3.20;99.90;;;;;;5049150;28;20254;-33
2023/03/28 06:25:07;;;;;;;20.20;6.20;;;3.30;99.90;;;;;;5049002;28;20432;-32
2023/03/28 06:27:37;;;;;;;14.93;5.20;;;3.30;99.90;;;;;;5047649;28;20234;-33
2023/03/28 06:30:09;;;;;;;11.67;5.47;;;3.40;99.90;;;;;;5048684;28;20220;-32
2023/03/28 06:32:38;;;;;;;12.37;5.77;;;3.40;99.90;;;;;;5047128;28;20220;-32
2023/03/28 06:35:06;;;;;;;16.10;6.10;;;3.40;99.90;;;;;;5049084;28;20291;-32
2023/03/28 06:37:33;;;;;;;10.57;5.33;;;3.50;99.90;;;;;;5048683;28;20715;-32
2023/03/28 06:40:00;;;;;;;11.43;5.43;;;3.50;99.90;;;;;;5030883;28;20292;-33
2023/03/28 06:42:28;;;;;;;13.20;5.07;;;3.60;99.90;;;;;;5030822;28;20200;-32
2023/03/28 06:44:55;;;;;;;11.30;5.77;;;3.60;99.90;;;;;;5048735;28;20683;-33
2023/03/28 06:47:25;;;;;;;15.43;5.80;;;3.70;99.90;;;;;;5031130;28;20951;-32
2023/03/28 06:49:54;;;;;;;15.73;6.20;;;3.70;99.90;;;;;;5047478;28;20196;-32
2023/03/28 06:52:22;;;;;;;15.53;6.40;;;3.80;99.90;;;;;;5046912;28;20317;-32
2023/03/28 06:54:50;;;;;;;14.67;5.97;;;3.80;99.90;;;;;;5048583;28;20294;-32
2023/03/28 06:57:19;;;;;;;23.33;6.90;;;3.90;99.90;;;;;;5048622;28;20262;-32
2023/03/28 06:59:50;;;;;;;17.07;7.30;;;3.90;99.90;;;;;;5048565;28;20192;-32
2023/03/28 07:02:17;;;;;;;18.10;6.07;;;4.00;99.90;;;;;;5048803;28;20633;-32
2023/03/28 07:04:45;;;;;;;11.63;5.90;;;4.00;99.90;;;;;;5048475;28;20990;-34
2023/03/28 07:07:13;;;;;;;17.83;5.93;;;4.10;99.90;;;;;;5046704;28;20200;-32
2023/03/28 07:09:42;;;;;;;16.83;6.33;;;4.20;99.90;;;;;;5030632;28;20205;-32
2023/03/28 07:12:10;;;;;;;16.83;6.27;;;4.20;99.90;;;;;;5030303;28;20228;-32
2023/03/28 07:14:39;;;;;;;10.70;5.07;;;4.30;99.90;;;;;;5048036;28;20285;-32
2023/03/28 07:17:06;;;;;;;13.03;5.33;;;4.40;99.90;;;;;;5048017;28;20204;-32
2023/03/28 07:19:36;;;;;;;12.93;5.37;;;4.40;99.90;;;;;;5047665;28;20208;-32
2023/03/28 07:22:08;;;;;;;16.70;5.87;;;4.50;99.90;;;;;;5047888;28;20234;-32
2023/03/28 07:24:40;;;;;;;23.33;7.47;;;4.50;99.90;;;;;;5048419;28;20208;-32
2023/03/28 07:27:11;;;;;;;14.47;6.20;;;4.60;99.90;;;;;;5046626;28;20200;-32
2023/03/28 07:29:45;;;;;;;25.40;6.73;;;4.70;99.90;;;;;;5048053;28;20778;-32
2023/03/28 07:32:13;;;;;;;14.63;6.03;;;4.70;99.90;;;;;;5046673;28;20212;-32
2023/03/28 07:34:42;;;;;;;16.60;6.00;;;4.80;99.90;;;;;;5046645;28;20301;-32
2023/03/28 07:37:11;;;;;;;13.33;5.57;;;4.80;99.90;;;;;;5046491;28;20214;-33
2023/03/28 07:39:40;;;;;;;17.13;5.40;;;4.90;99.90;;;;;;5047756;28;20291;-34
2023/03/28 07:42:12;;;;;;;17.77;6.13;;;4.90;99.90;;;;;;5047673;28;20216;-32
2023/03/28 07:44:42;;;;;;;10.57;5.10;;;5.00;99.90;;;;;;5047351;28;20684;-31
2023/03/28 07:47:10;;;;;;;12.53;4.93;;;5.10;99.90;;;;;;5047812;28;20228;-32
2023/03/28 07:49:39;;;;;;;13.23;4.57;;;5.20;99.90;;;;;;5046271;28;20212;-31
2023/03/28 07:52:12;;;;;;;8.87;4.10;;;5.30;99.90;;;;;;5046012;28;20200;-31
2023/03/28 07:54:40;;;;;;;10.77;4.40;;;5.40;99.90;;;;;;5047702;28;20722;-31
2023/03/28 07:57:07;;;;;;;9.80;4.03;;;5.50;99.90;;;;;;5045970;28;20299;-34
2023/03/28 07:59:37;;;;;;;11.00;4.20;;;5.60;99.90;;;;;;5047373;28;20207;-34
2023/03/28 08:02:10;;;;;;;11.27;4.10;;;5.70;99.90;;;;;;5047317;28;20196;-34
2023/03/28 08:04:41;;;;;;;7.00;3.67;;;5.80;99.90;;;;;;5047566;28;20239;-34
2023/03/28 08:07:11;;;;;;;10.37;3.93;;;5.90;99.90;;;;;;5030023;28;20200;-34
2023/03/28 08:09:38;;;;;;;10.03;4.53;;;6.00;99.90;;;;;;5047277;28;20220;-34
2023/03/28 08:12:08;;;;;;;9.97;3.37;;;6.10;99.90;;;;;;5045459;28;20202;-34
2023/03/28 08:14:37;;;;;;;8.33;3.60;;;6.20;99.90;;;;;;5045755;28;20263;-34
2023/03/28 08:17:08;;;;;;;8.73;3.57;;;6.20;99.90;;;;;;5047123;28;20243;-34
2023/03/28 08:19:35;;;;;;;7.93;3.40;;;6.30;99.90;;;;;;5046102;28;20289;-33
2023/03/28 08:22:03;;;;;;;9.30;3.13;;;6.40;99.90;;;;;;5045872;28;20254;-34
2023/03/28 08:24:34;;;;;;;11.67;3.80;;;6.50;99.90;;;;;;5029234;28;20208;-34
2023/03/28 08:27:03;;;;;;;10.03;3.50;;;6.60;99.90;;;;;;5045788;28;20610;-34
2023/03/28 08:29:33;;;;;;;9.97;3.67;;;6.70;99.90;;;;;;5045471;28;20216;-34
2023/03/28 08:32:05;;;;;;;8.73;3.37;;;6.80;99.90;;;;;;5046800;28;20234;-34
2023/03/28 08:34:32;;;;;;;8.43;3.60;;;6.80;99.90;;;;;;5046456;28;20220;-34
2023/03/28 08:36:59;;;;;;;8.53;3.77;;;6.90;99.90;;;;;;5045052;28;20202;-34
2023/03/28 08:39:27;;;;;;;13.07;4.90;;;7.00;99.90;;;;;;5045309;28;20223;-34
2023/03/28 08:42:42;;;;;;;12.13;4.37;;;7.10;99.90;;;;;;5046705;28;20312;-34
2023/03/28 08:45:44;;;;;;;11.87;4.47;;;7.20;99.90;;;;;;5043802;28;20227;-34
2023/03/28 08:48:14;;;;;;;11.23;4.23;;;7.30;99.90;;;;;;5047022;28;20258;-34
2023/03/28 08:50:49;;;;;;;9.50;4.03;;;7.30;99.90;;;;;;5046587;28;20197;-34
2023/03/28 08:53:29;;;;;;;10.80;3.90;;;7.40;99.90;;;;;;5045062;28;20281;-33
2023/03/28 08:56:00;;;;;;;11.53;3.63;;;7.40;99.90;;;;;;5044635;28;20297;-34
2023/03/28 08:58:33;;;;;;;7.70;3.50;;;7.50;99.90;;;;;;5045034;28;20216;-34
2023/03/28 09:01:02;;;;;;;9.07;3.60;;;7.60;99.90;;;;;;5046344;28;20670;-34
2023/03/28 09:03:33;;;;;;;14.23;4.40;;;7.60;99.90;;;;;;5046248;28;20570;-34
2023/03/28 09:06:24;;;;;;;16.23;5.10;;;7.70;99.90;;;;;;5044638;28;20271;-34
2023/03/28 09:09:01;;;;;;;9.33;3.90;;;7.80;99.90;;;;;;5046005;28;20314;-34
2023/03/28 09:11:55;;;;;;;11.57;3.60;;;7.80;99.90;;;;;;5046320;28;20211;-34
2023/03/28 09:14:32;;;;;;;8.90;3.60;;;7.90;99.90;;;;;;5046513;28;20282;-34
2023/03/28 09:17:15;;;;;;;7.20;3.10;;;7.90;99.90;;;;;;5044582;28;20540;-34
2023/03/28 09:20:10;;;;;;;10.87;3.57;;;8.00;99.90;;;;;;5044339;28;20204;-34
2023/03/28 09:23:01;;;;;;;11.57;3.40;;;8.10;99.90;;;;;;5046265;28;20215;-34
2023/03/28 09:25:35;;;;;;;7.77;3.20;;;8.20;99.90;;;;;;5044747;28;20586;-34
2023/03/28 09:28:13;;;;;;;6.33;3.07;;;8.30;99.90;;;;;;5046433;28;20717;-34
2023/03/28 09:30:46;;;;;;;9.47;3.27;;;8.30;99.90;;;;;;5044775;28;20200;-34
2023/03/28 09:33:21;;;;;;;7.13;2.87;;;8.40;99.90;;;;;;5044397;28;20315;-34
2023/03/28 09:35:51;;;;;;;6.57;3.10;;;8.40;99.90;;;;;;5045977;28;20654;-34
2023/03/28 09:38:27;;;;;;;6.73;2.97;;;8.50;99.90;;;;;;5045805;28;20387;-34
2023/03/28 09:40:58;;;;;;;8.73;2.90;;;8.50;99.90;;;;;;5046189;28;20206;-34
2023/03/28 09:43:55;;;;;;;8.03;3.00;;;8.50;99.90;;;;;;5049984;28;20208;-34
2023/03/28 09:46:37;;;;;;;8.80;3.37;;;8.60;99.90;;;;;;5032518;28;20200;-34
2023/03/28 09:49:04;;;;;;;10.00;2.80;;;8.60;99.90;;;;;;5048601;28;20588;-34
2023/03/28 09:51:36;;;;;;;6.87;2.97;;;8.70;99.90;;;;;;5032161;28;20291;-35
2023/03/28 09:54:06;;;;;;;5.23;2.37;;;8.70;99.90;;;;;;5048261;28;20282;-34
2023/03/28 09:56:41;;;;;;;7.73;2.70;;;8.70;99.90;;;;;;5049468;28;20259;-34
2023/03/28 09:59:23;;;;;;;9.57;3.30;;;8.70;99.90;;;;;;5049980;28;21068;-34
2023/03/28 10:01:58;;;;;;;11.00;2.90;;;8.80;99.90;;;;;;5049442;28;20208;-34
2023/03/28 10:04:28;;;;;;;8.73;2.50;;;8.70;99.90;;;;;;5048082;28;20713;-34
2023/03/28 10:07:27;;;;;;;7.57;2.57;;;8.70;99.90;;;;;;5048007;28;20545;-34
2023/03/28 10:10:06;;;;;;;5.87;2.67;;;8.80;99.90;;;;;;5049385;28;20298;-34
2023/03/28 10:12:38;;;;;;;7.37;2.93;;;8.80;99.90;;;;;;5047706;28;20202;-34
2023/03/28 10:15:26;;;;;;;8.07;2.20;;;8.80;99.90;;;;;;5048902;28;20228;-34
2023/03/28 10:17:59;;;;;;;6.10;2.10;;;8.80;99.90;;;;;;5047303;28;20204;-34
2023/03/28 10:20:33;;;;;;;6.03;2.30;;;8.90;99.90;;;;;;5030904;28;20211;-34
2023/03/28 10:23:03;;;;;;;5.87;2.30;;;8.90;99.90;;;;;;5049014;28;20227;-34
2023/03/28 10:25:42;;;;;;;5.83;2.60;;;8.90;99.90;;;;;;5047591;28;20675;-34
2023/03/28 10:28:16;;;;;;;8.90;2.20;;;9.00;99.90;;;;;;5048523;28;20294;-34
2023/03/28 10:30:52;;;;;;;7.57;2.47;;;9.10;99.90;;;;;;5048611;28;20251;-34
2023/03/28 10:33:28;;;;;;;6.43;2.23;;;9.10;99.90;;;;;;5046728;28;20214;-34
2023/03/28 10:36:08;;;;;;;4.27;1.90;;;9.20;99.90;;;;;;5048563;28;20291;-34
2023/03/28 10:38:42;;;;;;;4.97;2.03;;;9.30;99.90;;;;;;5047245;28;20698;-33
2023/03/28 10:41:17;;;;;;;7.77;2.00;;;9.40;99.90;;;;;;5048458;28;20309;-34
2023/03/28 10:43:49;;;;;;;5.37;1.87;;;9.50;99.90;;;;;;5047194;28;20220;-34
2023/03/28 10:46:30;;;;;;;6.40;1.93;;;9.50;99.90;;;;;;5048558;28;20193;-34
2023/03/28 10:49:13;;;;;;;5.80;1.90;;;9.60;99.90;;;;;;5046208;28;20211;-34
2023/03/28 10:51:44;;;;;;;10.50;2.30;;;9.70;99.90;;;;;;5046685;28;20544;-34
2023/03/28 10:54:16;;;;;;;9.10;2.60;;;9.80;99.90;;;;;;5045363;28;20252;-34
2023/03/28 10:56:58;;;;;;;4.77;2.17;;;9.90;99.90;;;;;;5047860;28;20290;-34
2023/03/28 10:59:40;;;;;;;9.63;2.20;;;10.00;99.90;;;;;;5047691;28;20212;-34
2023/03/28 11:02:22;;;;;;;5.67;2.13;;;10.10;99.90;;;;;;5046531;28;20582;-34
2023/03/28 11:05:04;;;;;;;7.60;2.63;;;10.20;99.90;;;;;;5047944;28;20215;-34
2023/03/28 11:07:43;;;;;;;9.00;2.50;;;10.20;99.90;;;;;;5045871;28;20771;-34
2023/03/28 11:10:23;;;;;;;5.47;2.10;;;10.30;99.90;;;;;;5048147;28;20758;-33
2023/03/28 11:13:13;;;;;;;4.83;2.10;;;10.40;99.90;;;;;;5046884;28;20265;-34
2023/03/28 11:16:21;;;;;;;6.13;2.20;;;10.40;99.90;;;;;;5046551;28;20303;-34
2023/03/28 11:19:39;;;;;;;4.73;2.03;;;10.40;99.90;;;;;;5048270;28;20602;-34
2023/03/28 11:22:28;;;;;;;6.67;2.37;;;10.50;99.90;;;;;;5034581;28;20295;-34
2023/03/28 11:25:04;;;;;;;9.83;2.70;;;10.50;99.90;;;;;;5046395;28;20220;-34
2023/03/28 11:27:49;;;;;;;4.57;2.30;;;10.60;99.90;;;;;;5047746;28;20240;-34
2023/03/28 11:30:20;;;;;;;4.97;1.97;;;10.60;99.90;;;;;;5047830;28;20289;-34
2023/03/28 11:33:12;;;;;;;13.50;2.77;;;10.70;99.90;;;;;;5047696;28;20244;-34
2023/03/28 11:35:48;;;;;;;6.10;1.93;;;10.80;99.90;;;;;;5047792;28;20315;-34
2023/03/28 11:38:26;;;;;;;6.60;1.97;;;10.80;99.90;;;;;;5048198;28;20203;-34
2023/03/28 11:41:17;;;;;;;4.73;2.10;;;10.90;99.90;;;;;;5047388;28;20291;-34
2023/03/28 11:43:59;;;;;;;7.57;2.20;;;10.90;99.90;;;;;;5046506;28;20217;-34
2023/03/28 11:46:30;;;;;;;5.03;1.77;;;11.10;99.90;;;;;;5046445;28;20208;-34
2023/03/28 11:49:42;;;;;;;4.97;2.10;;;11.10;99.90;;;;;;5047757;28;20200;-34
2023/03/28 11:52:21;;;;;;;5.50;1.73;;;11.20;99.90;;;;;;5044449;28;20313;-34
2023/03/28 11:55:14;;;;;;;4.70;2.23;;;11.20;99.90;;;;;;5044423;28;20232;-34
2023/03/28 11:58:03;;;;;;;8.37;2.10;;;11.30;99.90;;;;;;5046833;28;20642;-34
2023/03/28 12:00:40;;;;;;;8.33;2.50;;;11.40;99.90;;;;;;5046429;28;20215;-34
2023/03/28 12:03:36;;;;;;;7.73;2.40;;;11.40;99.90;;;;;;5045606;28;20408;-34
2023/03/28 12:06:06;;;;;;;7.20;1.80;;;11.50;99.90;;;;;;5046826;28;20258;-34
2023/03/28 12:08:48;;;;;;;4.63;2.20;;;11.50;99.90;;;;;;5045927;28;20234;-34
2023/03/28 12:11:31;;;;;;;5.70;2.43;;;11.60;99.90;;;;;;5047378;28;20216;-34
2023/03/28 12:14:32;;;;;;;4.50;2.07;;;11.60;99.90;;;;;;5045593;28;20216;-34
2023/03/28 12:17:21;;;;;;;8.30;2.33;;;11.70;99.90;;;;;;5045173;28;20197;-34
2023/03/28 12:19:48;;;;;;;9.17;3.00;;;11.70;99.90;;;;;;5047044;28;20719;-34
2023/03/28 12:22:42;;;;;;;12.67;2.73;;;11.70;99.90;;;;;;5045868;28;20282;-34
2023/03/28 12:25:09;;;;;;;4.27;2.10;;;11.70;99.90;;;;;;5047314;28;20626;-34
2023/03/28 12:28:02;;;;;;;5.63;2.17;;;11.70;99.90;;;;;;5047547;28;20212;-34
2023/03/28 12:30:41;;;;;;;10.33;2.90;;;11.70;99.90;;;;;;5046900;28;20234;-34
2023/03/28 12:33:16;;;;;;;5.50;2.53;;;11.80;99.90;;;;;;5046426;28;20770;-34
2023/03/28 12:36:23;;;;;;;5.90;2.30;;;11.80;99.90;;;;;;5046598;28;20331;-34
2023/03/28 12:38:59;;;;;;;5.97;1.87;;;11.90;99.90;;;;;;5045478;28;20265;-33
2023/03/28 12:41:35;;;;;;;6.93;2.10;;;11.90;99.90;;;;;;5045774;28;20283;-34
2023/03/28 12:44:16;;;;;;;5.17;2.40;;;11.90;99.90;;;;;;5044257;28;20732;-33
2023/03/28 12:46:51;;;;;;;5.40;2.43;;;12.00;99.90;;;;;;5045946;28;20299;-33
2023/03/28 12:49:33;;;;;;;4.03;2.30;;;12.00;99.90;;;;;;5046628;28;20200;-34
2023/03/28 12:52:05;;;;;;;8.10;3.10;;;12.00;99.90;;;;;;5045543;28;20677;-33
2023/03/28 12:54:34;;;;;;;9.33;2.67;;;12.10;99.90;;;;;;5044026;28;20319;-33
2023/03/28 12:57:07;;;;;;;7.17;2.80;;;12.00;99.90;;;;;;5044283;28;20211;-33
2023/03/28 12:59:49;;;;;;;7.30;2.90;;;12.10;99.90;;;;;;5044665;28;20234;-33
2023/03/28 13:02:54;;;;;;;10.00;2.70;;;12.10;99.90;;;;;;5046909;28;20636;-35
2023/03/28 13:05:37;;;;;;;6.60;2.30;;;12.10;99.90;;;;;;5046239;28;20265;-34
2023/03/28 13:08:37;;;;;;;7.43;2.40;;;12.10;99.90;;;;;;5046053;28;20208;-33
2023/03/28 13:11:17;;;;;;;9.83;3.37;;;12.10;99.90;;;;;;5028198;28;20305;-33
2023/03/28 13:14:07;;;;;;;8.60;2.93;;;12.20;99.90;;;;;;5046042;28;20254;-33
2023/03/28 13:16:55;;;;;;;5.37;2.23;;;12.20;99.90;;;;;;5027679;28;20227;-34
2023/03/28 13:19:56;;;;;;;4.87;2.50;;;12.30;99.90;;;;;;5045003;28;20220;-33
2023/03/28 13:22:39;;;;;;;9.40;2.60;;;12.40;99.90;;;;;;5044650;28;20285;-34
2023/03/28 13:25:20;;;;;;;6.40;2.87;;;12.30;99.90;;;;;;5046321;28;20500;-33
2023/03/28 13:28:12;;;;;;;5.53;2.47;;;12.40;99.90;;;;;;5044843;28;20614;-33
2023/03/28 13:31:05;;;;;;;5.23;2.50;;;12.50;99.90;;;;;;5045568;28;20270;-33
2023/03/28 13:33:37;;;;;;;6.30;2.70;;;12.50;99.90;;;;;;5047105;28;20253;-33